Nevsehir, Turkey
Current Conditions -  °F | °C
As of 3:50 PM on Wednesday 26 Nov 2014 (Local Time) from LTAZ Reporting Station
Light Rain Light Rain  
Wind Chill: 36°   Ceiling: 2600
Heat Index: 43°   Visibility: 6mi
Dew Point: 37°   Wind: 14mph
Humidity: 81%   Direction: 350°N
Pressure: 29.8"   Gusts: NA
Location:  38.63°N, 34.72°E
Report Text: LTAZ 261250Z 35012KT 9999 -RA BKN026 BKN080 06/03 Q1009
Loading
Personal Weather Stations






























Interactive Weather Map New forecast layout! Learn more

10-Day Weather Forecast

Advertisements
Track Severe Weather on mobile